Time;durP1;ratioP1;P1;durP2;ratioP2;P2;SDS_P1;SDS_P2;PMS_P1;PMS_P2;Temp;Humidity;BMP_temperature;BMP_pressure;BME280_temperature;BME280_humidity;BME280_pressure;Samples;Min_cycle;Max_cycle;Signal;HPM_P1;HPM_P2
2022/08/31 00:05:49;;;;;;;3.85;1.25;;;15.90;98.00;;;;;;5105031;28;20075;-78
2022/08/31 00:08:14;;;;;;;4.82;1.48;;;15.90;98.00;;;;;;5109800;28;20468;-78
2022/08/31 00:10:44;;;;;;;2.50;1.00;;;15.80;98.10;;;;;;5090549;28;20039;-79
2022/08/31 00:13:11;;;;;;;1.50;0.80;;;15.70;98.30;;;;;;5109032;28;20505;-78
2022/08/31 00:15:37;;;;;;;8.43;1.40;;;15.80;98.30;;;;;;5112136;28;20081;-79
2022/08/31 00:18:03;;;;;;;2.10;1.00;;;15.70;98.40;;;;;;5115873;28;20040;-79
2022/08/31 00:20:29;;;;;;;3.95;1.35;;;15.60;98.40;;;;;;5099432;28;20501;-80
2022/08/31 00:22:55;;;;;;;2.70;1.00;;;15.60;98.50;;;;;;5096601;28;20438;-79
2022/08/31 00:25:21;;;;;;;1.55;1.10;;;15.60;98.50;;;;;;5109321;28;20039;-77
2022/08/31 00:27:46;;;;;;;3.58;1.20;;;15.50;98.60;;;;;;5112699;28;20415;-78
2022/08/31 00:30:12;;;;;;;3.20;1.20;;;15.50;98.70;;;;;;5110007;27;20044;-78
2022/08/31 00:32:38;;;;;;;2.58;0.95;;;15.50;98.80;;;;;;5109277;27;20529;-78
2022/08/31 00:35:05;;;;;;;2.17;1.23;;;15.50;98.90;;;;;;5116280;27;20039;-79
2022/08/31 00:37:32;;;;;;;1.92;1.13;;;15.40;99.00;;;;;;5114356;28;20035;-78
2022/08/31 00:39:57;;;;;;;3.60;1.30;;;15.40;99.10;;;;;;5112507;28;20410;-78
2022/08/31 00:42:23;;;;;;;1.52;1.10;;;15.30;99.20;;;;;;5110644;28;20039;-79
2022/08/31 00:44:49;;;;;;;4.28;1.10;;;15.30;99.20;;;;;;5115394;27;20039;-78
2022/08/31 00:47:15;;;;;;;2.33;1.30;;;15.20;99.30;;;;;;5107583;28;20065;-79
2022/08/31 00:49:45;;;;;;;2.00;1.13;;;15.20;99.50;;;;;;5110329;28;20050;-78
2022/08/31 00:52:14;;;;;;;1.42;1.13;;;15.10;99.60;;;;;;5114366;28;20388;-78
2022/08/31 00:54:53;;;;;;;2.83;1.00;;;15.10;99.70;;;;;;5121475;27;20069;-78
2022/08/31 00:57:20;;;;;;;2.90;1.20;;;15.10;99.80;;;;;;5113821;28;20043;-78
2022/08/31 00:59:47;;;;;;;2.70;1.23;;;15.00;99.80;;;;;;5111336;28;20031;-77
2022/08/31 01:02:13;;;;;;;1.70;1.23;;;15.00;99.90;;;;;;5112571;27;20040;-77
2022/08/31 01:04:39;;;;;;;3.47;1.25;;;15.00;99.90;;;;;;5109507;28;20511;-78
2022/08/31 01:07:07;;;;;;;2.72;1.17;;;15.00;99.90;;;;;;5111889;28;20124;-77
2022/08/31 01:09:38;;;;;;;3.17;0.93;;;14.90;99.90;;;;;;5107732;27;20035;-77
2022/08/31 01:12:06;;;;;;;2.40;1.02;;;14.90;99.90;;;;;;5111005;28;20040;-79
2022/08/31 01:14:32;;;;;;;2.13;1.35;;;14.90;99.90;;;;;;5108352;28;20036;-78
2022/08/31 01:16:58;;;;;;;1.40;1.00;;;14.90;99.90;;;;;;5112447;28;20466;-78
2022/08/31 01:19:27;;;;;;;2.08;1.08;;;14.90;99.90;;;;;;5111463;28;20128;-78
2022/08/31 01:22:11;;;;;;;2.83;1.00;;;14.80;99.90;;;;;;5113526;27;20047;-78
2022/08/31 01:24:40;;;;;;;2.35;1.20;;;14.80;99.90;;;;;;5106622;28;20035;-78
2022/08/31 01:27:06;;;;;;;1.42;1.00;;;14.70;99.90;;;;;;5103460;28;20124;-77
2022/08/31 01:29:34;;;;;;;3.20;1.45;;;14.60;99.90;;;;;;5107707;28;20150;-78
2022/08/31 01:32:00;;;;;;;1.67;1.10;;;14.60;99.90;;;;;;5107498;28;20043;-77
2022/08/31 01:34:26;;;;;;;4.43;1.27;;;14.60;99.90;;;;;;5104571;28;20040;-78
2022/08/31 01:36:52;;;;;;;1.38;1.05;;;14.60;99.90;;;;;;5113261;27;20050;-79
2022/08/31 01:39:18;;;;;;;3.20;0.95;;;14.60;99.90;;;;;;5113745;27;20048;-78
2022/08/31 01:41:45;;;;;;;3.28;1.15;;;14.50;99.90;;;;;;5114327;27;20047;-79
2022/08/31 01:44:12;;;;;;;3.65;1.30;;;14.50;99.90;;;;;;5114868;28;20477;-79
2022/08/31 01:46:39;;;;;;;1.95;0.93;;;14.50;99.90;;;;;;5111926;28;20044;-79
2022/08/31 01:49:05;;;;;;;1.48;0.93;;;14.50;99.90;;;;;;5120201;28;20047;-77
2022/08/31 01:51:31;;;;;;;2.30;1.30;;;14.50;99.90;;;;;;5117738;27;20084;-79
2022/08/31 01:53:56;;;;;;;1.77;1.17;;;14.50;99.90;;;;;;5119200;28;20040;-79
2022/08/31 01:56:32;;;;;;;6.13;1.38;;;14.40;99.90;;;;;;5097415;28;20043;-78
2022/08/31 01:58:58;;;;;;;1.50;0.90;;;14.40;99.90;;;;;;5112621;28;20118;-78
2022/08/31 02:01:32;;;;;;;4.50;1.08;;;14.40;99.90;;;;;;5112815;28;20035;-78
2022/08/31 02:03:58;;;;;;;4.32;0.90;;;14.40;99.90;;;;;;5112884;28;20048;-77
2022/08/31 02:06:24;;;;;;;1.85;1.10;;;14.40;99.90;;;;;;5106358;28;20044;-78
2022/08/31 02:08:50;;;;;;;3.97;1.10;;;14.40;99.90;;;;;;5105320;28;20040;-79
2022/08/31 02:11:15;;;;;;;1.83;1.10;;;14.30;99.90;;;;;;5107937;28;20047;-78
2022/08/31 02:13:42;;;;;;;3.38;1.20;;;14.30;99.90;;;;;;5115631;27;20040;-78
2022/08/31 02:16:08;;;;;;;1.52;1.10;;;14.30;99.90;;;;;;5114305;28;20083;-77
2022/08/31 02:18:36;;;;;;;2.42;1.30;;;14.30;99.90;;;;;;5111572;28;20066;-77
2022/08/31 02:21:03;;;;;;;1.58;1.13;;;14.30;99.90;;;;;;5127913;28;20035;-79
2022/08/31 02:23:29;;;;;;;2.50;1.20;;;14.20;99.90;;;;;;5112524;28;20126;-78
2022/08/31 02:25:54;;;;;;;1.65;0.90;;;14.20;99.90;;;;;;5113237;27;20075;-78
2022/08/31 02:28:21;;;;;;;1.23;0.90;;;14.10;99.90;;;;;;5090246;28;20050;-78
2022/08/31 02:30:47;;;;;;;1.27;0.93;;;14.20;99.90;;;;;;5109448;28;20062;-79
2022/08/31 02:33:14;;;;;;;1.42;1.02;;;14.10;99.90;;;;;;5109445;28;20066;-78
2022/08/31 02:35:41;;;;;;;2.95;1.58;;;14.10;99.90;;;;;;5111016;28;20032;-77
2022/08/31 02:38:08;;;;;;;2.17;1.00;;;14.10;99.90;;;;;;5105008;28;20043;-78
2022/08/31 02:40:37;;;;;;;1.37;1.00;;;14.10;99.90;;;;;;5108709;28;20040;-77
2022/08/31 02:43:04;;;;;;;2.05;1.10;;;14.10;99.90;;;;;;5108736;27;20392;-78
2022/08/31 02:45:30;;;;;;;3.08;1.20;;;14.00;99.90;;;;;;5126247;27;20564;-78
2022/08/31 02:47:55;;;;;;;2.38;1.10;;;14.00;99.90;;;;;;5107605;28;20118;-78
2022/08/31 02:50:21;;;;;;;1.80;1.02;;;14.00;99.90;;;;;;5112189;27;20045;-78
2022/08/31 02:52:47;;;;;;;2.28;1.00;;;13.90;99.90;;;;;;5112051;28;20114;-78
2022/08/31 02:55:13;;;;;;;2.05;1.00;;;13.90;99.90;;;;;;5111611;28;20039;-78
2022/08/31 02:57:39;;;;;;;1.08;0.90;;;13.90;99.90;;;;;;5082634;28;20082;-77
2022/08/31 03:00:07;;;;;;;3.67;1.00;;;13.90;99.90;;;;;;5106583;28;20430;-78
2022/08/31 03:02:32;;;;;;;2.45;0.90;;;13.90;99.90;;;;;;5108149;28;20531;-78
2022/08/31 03:05:06;;;;;;;1.17;0.98;;;13.80;99.90;;;;;;5109201;28;20123;-77
2022/08/31 03:07:33;;;;;;;1.95;1.00;;;13.80;99.90;;;;;;5110438;28;20496;-77
2022/08/31 03:10:00;;;;;;;1.60;1.10;;;13.80;99.90;;;;;;5111065;28;20062;-77
2022/08/31 03:12:25;;;;;;;2.92;1.17;;;13.80;99.90;;;;;;5105372;28;20187;-78
2022/08/31 03:14:51;;;;;;;2.40;1.20;;;13.80;99.90;;;;;;5112427;28;20035;-79
2022/08/31 03:17:17;;;;;;;1.83;1.20;;;13.80;99.90;;;;;;5109571;28;20044;-78
2022/08/31 03:19:42;;;;;;;1.80;1.15;;;13.70;99.90;;;;;;5108887;28;20043;-77
2022/08/31 03:22:09;;;;;;;2.88;1.20;;;13.70;99.90;;;;;;5111893;28;20044;-77
2022/08/31 03:24:35;;;;;;;2.92;1.30;;;13.70;99.90;;;;;;5111717;28;20488;-77
2022/08/31 03:27:00;;;;;;;1.85;1.20;;;13.70;99.90;;;;;;5112187;28;20043;-80
2022/08/31 03:29:26;;;;;;;1.77;1.00;;;13.70;99.90;;;;;;5106225;28;20032;-78
2022/08/31 03:31:52;;;;;;;3.00;1.30;;;13.70;99.90;;;;;;5099231;28;20579;-78
2022/08/31 03:34:17;;;;;;;2.03;1.00;;;13.70;99.90;;;;;;5105207;28;20065;-78
2022/08/31 03:36:43;;;;;;;2.75;1.40;;;13.70;99.90;;;;;;5103755;28;20391;-78
2022/08/31 03:39:09;;;;;;;2.58;1.20;;;13.70;99.90;;;;;;5113538;28;20035;-79
2022/08/31 03:41:35;;;;;;;1.75;1.27;;;13.70;99.90;;;;;;5111348;28;20079;-77
2022/08/31 03:44:02;;;;;;;5.95;1.50;;;13.60;99.90;;;;;;5108691;28;20471;-76
2022/08/31 03:46:31;;;;;;;2.50;1.23;;;13.60;99.90;;;;;;5112314;28;20487;-77
2022/08/31 03:49:00;;;;;;;1.75;1.27;;;13.70;99.90;;;;;;5109593;28;20035;-78
2022/08/31 03:51:26;;;;;;;1.42;1.10;;;13.60;99.90;;;;;;5114635;28;20097;-78
2022/08/31 03:53:52;;;;;;;1.70;1.30;;;13.60;99.90;;;;;;5113895;28;20043;-77
2022/08/31 03:56:18;;;;;;;4.03;1.55;;;13.60;99.90;;;;;;5111942;28;20046;-77
2022/08/31 03:58:44;;;;;;;3.13;1.58;;;13.60;99.90;;;;;;5113885;27;20036;-77
2022/08/31 04:01:12;;;;;;;2.30;1.35;;;13.60;99.90;;;;;;5112678;28;20050;-77
2022/08/31 04:03:38;;;;;;;2.83;1.25;;;13.60;99.90;;;;;;5111016;28;20074;-77
2022/08/31 04:06:11;;;;;;;2.55;1.20;;;13.60;99.90;;;;;;5115089;28;20480;-77
2022/08/31 04:08:38;;;;;;;1.27;1.05;;;13.60;99.90;;;;;;5110846;27;20480;-76
2022/08/31 04:11:10;;;;;;;2.75;1.50;;;13.60;99.90;;;;;;5104060;28;20118;-76
2022/08/31 04:13:36;;;;;;;1.70;1.20;;;13.60;99.90;;;;;;5102161;27;20031;-77
2022/08/31 04:16:02;;;;;;;3.42;1.55;;;13.50;99.90;;;;;;5109594;28;20027;-77
2022/08/31 04:18:28;;;;;;;3.05;1.30;;;13.50;99.90;;;;;;5114131;27;20241;-77
2022/08/31 04:20:53;;;;;;;5.28;2.22;;;13.50;99.90;;;;;;5108942;28;20040;-78
2022/08/31 04:23:19;;;;;;;5.07;1.20;;;13.50;99.90;;;;;;5112906;28;20446;-77
2022/08/31 04:25:45;;;;;;;3.67;1.70;;;13.50;99.90;;;;;;5112059;28;20058;-77
2022/08/31 04:28:11;;;;;;;2.63;1.50;;;13.40;99.90;;;;;;5113549;27;20122;-77
2022/08/31 04:30:41;;;;;;;4.10;1.70;;;13.40;99.90;;;;;;5112579;28;20046;-78
2022/08/31 04:33:08;;;;;;;2.75;1.50;;;13.40;99.90;;;;;;5105126;28;20055;-77
2022/08/31 04:35:37;;;;;;;2.20;1.40;;;13.40;99.90;;;;;;5110462;27;20082;-79
2022/08/31 04:38:03;;;;;;;2.25;1.35;;;13.30;99.90;;;;;;5113362;28;20040;-78
2022/08/31 04:40:28;;;;;;;2.30;1.60;;;13.30;99.90;;;;;;5118717;27;20103;-78
2022/08/31 04:42:54;;;;;;;2.08;1.40;;;13.40;99.90;;;;;;5106058;27;20036;-78
2022/08/31 04:45:20;;;;;;;2.42;1.52;;;13.30;99.90;;;;;;5110546;28;20032;-78
2022/08/31 04:47:45;;;;;;;3.15;1.50;;;13.30;99.90;;;;;;5110421;28;20071;-78
2022/08/31 04:50:12;;;;;;;2.78;1.70;;;13.30;99.90;;;;;;5110964;28;20040;-78
2022/08/31 04:52:38;;;;;;;3.20;1.50;;;13.30;99.90;;;;;;5107679;27;20074;-77
2022/08/31 04:55:04;;;;;;;4.03;1.77;;;13.30;99.90;;;;;;5113417;27;20036;-78
2022/08/31 04:57:34;;;;;;;3.92;1.65;;;13.30;99.90;;;;;;5110357;28;20039;-77
2022/08/31 05:00:00;;;;;;;3.53;1.50;;;13.30;99.90;;;;;;5112678;27;20126;-77
2022/08/31 05:02:25;;;;;;;3.53;1.63;;;13.30;99.90;;;;;;5112901;27;20602;-76
2022/08/31 05:04:51;;;;;;;3.00;1.73;;;13.30;99.90;;;;;;5103811;28;20066;-77
2022/08/31 05:07:17;;;;;;;2.53;1.58;;;13.20;99.90;;;;;;5111704;27;20085;-78
2022/08/31 05:09:42;;;;;;;3.78;1.67;;;13.20;99.90;;;;;;5109567;28;20043;-77
2022/08/31 05:12:08;;;;;;;2.10;1.48;;;13.30;99.90;;;;;;5115019;28;20050;-77
2022/08/31 05:14:34;;;;;;;6.72;1.67;;;13.30;99.90;;;;;;5107507;27;20036;-77
2022/08/31 05:17:00;;;;;;;2.42;1.52;;;13.30;99.90;;;;;;5106572;27;20067;-77
2022/08/31 05:19:27;;;;;;;4.45;1.58;;;13.30;99.90;;;;;;5112680;28;20491;-77
2022/08/31 05:21:53;;;;;;;2.55;1.65;;;13.30;99.90;;;;;;5107764;28;20043;-77
2022/08/31 05:24:21;;;;;;;2.70;1.60;;;13.30;99.90;;;;;;5110422;27;20044;-77
2022/08/31 05:26:53;;;;;;;3.63;1.85;;;13.30;99.90;;;;;;5126058;27;20051;-77
2022/08/31 05:29:21;;;;;;;2.78;1.70;;;13.30;99.90;;;;;;5112165;27;20043;-78
2022/08/31 05:31:47;;;;;;;2.40;1.60;;;13.40;99.90;;;;;;5113045;28;20042;-77
2022/08/31 05:34:14;;;;;;;3.28;1.60;;;13.50;99.90;;;;;;5091906;28;20392;-78
2022/08/31 05:36:44;;;;;;;4.55;1.88;;;13.50;99.90;;;;;;5110630;28;20039;-77
2022/08/31 05:39:12;;;;;;;3.47;1.73;;;13.50;99.90;;;;;;5104890;28;20048;-77
2022/08/31 05:41:40;;;;;;;6.65;1.88;;;13.60;99.90;;;;;;5108826;28;20059;-77
2022/08/31 05:44:06;;;;;;;2.17;1.60;;;13.60;99.90;;;;;;5106461;28;20163;-77
2022/08/31 05:46:32;;;;;;;4.22;1.90;;;13.60;99.90;;;;;;5106335;28;20550;-77
2022/08/31 05:48:57;;;;;;;4.30;1.80;;;13.60;99.90;;;;;;5102896;27;20503;-78
2022/08/31 05:51:24;;;;;;;4.78;1.50;;;13.70;99.90;;;;;;5111428;27;20039;-78
2022/08/31 05:53:50;;;;;;;3.22;1.73;;;13.70;99.90;;;;;;5093596;28;20044;-78
2022/08/31 05:56:23;;;;;;;5.97;2.00;;;13.80;99.90;;;;;;5106340;28;20420;-77
2022/08/31 05:58:49;;;;;;;2.97;1.83;;;13.80;99.90;;;;;;5110940;27;20118;-77
2022/08/31 06:01:23;;;;;;;3.50;1.80;;;13.80;99.90;;;;;;5110007;28;20096;-77
2022/08/31 06:03:49;;;;;;;2.53;1.60;;;13.90;99.90;;;;;;5110083;28;20075;-77
2022/08/31 06:06:15;;;;;;;2.50;1.80;;;14.00;99.90;;;;;;5113768;28;20082;-77
2022/08/31 06:08:41;;;;;;;2.95;1.50;;;14.10;99.90;;;;;;5104533;28;20456;-77
2022/08/31 06:11:13;;;;;;;2.63;1.52;;;14.10;99.90;;;;;;5104740;27;20050;-77
2022/08/31 06:13:39;;;;;;;3.63;1.70;;;14.20;99.90;;;;;;5107729;28;20500;-78
2022/08/31 06:16:05;;;;;;;6.20;1.92;;;14.60;99.90;;;;;;5107936;28;20044;-77
2022/08/31 06:18:31;;;;;;;3.45;1.50;;;15.10;99.90;;;;;;5112784;28;20163;-77
2022/08/31 06:21:11;;;;;;;5.68;1.75;;;15.60;99.90;;;;;;5102850;28;20532;-77
2022/08/31 06:23:43;;;;;;;2.53;1.48;;;16.00;99.90;;;;;;5107470;27;20047;-77
2022/08/31 06:26:15;;;;;;;2.15;1.40;;;16.30;99.90;;;;;;5113206;28;20436;-77
2022/08/31 06:28:42;;;;;;;4.05;1.55;;;16.20;99.90;;;;;;5114083;28;20044;-77
2022/08/31 06:31:15;;;;;;;2.22;1.40;;;16.20;99.90;;;;;;5107679;28;20047;-77
2022/08/31 06:33:42;;;;;;;4.03;1.70;;;16.20;99.90;;;;;;5107254;28;20039;-78
2022/08/31 06:36:13;;;;;;;2.05;1.30;;;16.20;99.90;;;;;;5111772;28;20040;-77
2022/08/31 06:38:39;;;;;;;2.28;1.45;;;16.20;99.90;;;;;;5112097;28;20157;-76
2022/08/31 06:41:11;;;;;;;1.52;1.20;;;16.40;99.90;;;;;;5098947;28;20056;-78
2022/08/31 06:43:37;;;;;;;2.85;1.30;;;16.70;99.90;;;;;;5104339;28;20146;-77
2022/08/31 06:46:03;;;;;;;3.47;1.58;;;17.10;99.90;;;;;;5108803;28;20118;-78
2022/08/31 06:48:28;;;;;;;3.60;1.30;;;17.50;99.90;;;;;;5106879;28;20044;-77
2022/08/31 06:50:58;;;;;;;2.55;1.20;;;17.90;99.90;;;;;;5112268;28;20063;-77
2022/08/31 06:53:24;;;;;;;3.67;1.27;;;18.20;99.90;;;;;;5094302;28;20089;-77
2022/08/31 06:55:50;;;;;;;6.88;1.65;;;18.40;99.90;;;;;;5110255;28;20082;-78
2022/08/31 06:58:16;;;;;;;2.67;1.30;;;18.60;99.90;;;;;;5113108;28;20365;-77
2022/08/31 07:00:41;;;;;;;3.35;1.40;;;18.80;99.90;;;;;;5104159;28;20054;-77
2022/08/31 07:03:23;;;;;;;6.13;1.50;;;18.70;99.90;;;;;;5112122;28;20039;-78
2022/08/31 07:05:53;;;;;;;3.42;1.23;;;18.50;99.90;;;;;;5118658;28;20453;-77
2022/08/31 07:08:20;;;;;;;3.03;1.40;;;18.50;99.90;;;;;;5108280;28;20044;-77
2022/08/31 07:10:46;;;;;;;3.40;1.10;;;18.40;99.90;;;;;;5109816;28;20051;-76
2022/08/31 07:13:11;;;;;;;2.72;1.10;;;18.30;99.90;;;;;;5105579;28;20044;-77
2022/08/31 07:15:37;;;;;;;1.90;1.13;;;18.20;99.90;;;;;;5109396;28;20044;-76
2022/08/31 07:18:03;;;;;;;3.05;1.52;;;18.00;99.90;;;;;;5104226;28;20036;-77
2022/08/31 07:20:29;;;;;;;3.15;1.30;;;18.00;99.90;;;;;;5091114;28;20131;-76
2022/08/31 07:22:56;;;;;;;2.38;1.30;;;18.10;99.90;;;;;;5112726;28;20115;-76
2022/08/31 07:25:22;;;;;;;3.38;1.20;;;18.20;99.90;;;;;;5105240;28;20089;-77
2022/08/31 07:27:54;;;;;;;4.55;1.20;;;18.20;99.90;;;;;;5117883;28;20036;-76
2022/08/31 07:30:21;;;;;;;4.85;1.20;;;18.30;99.90;;;;;;5097884;28;20043;-76
2022/08/31 07:32:49;;;;;;;4.30;1.33;;;18.30;99.90;;;;;;5102596;28;20115;-77
2022/08/31 07:35:18;;;;;;;2.17;1.00;;;18.50;99.90;;;;;;5124173;28;20047;-82
2022/08/31 07:43:14;;;;;;;2.47;1.40;;;18.60;98.00;;;;;;5058334;28;20397;-83
2022/08/31 07:45:41;;;;;;;3.65;1.08;;;18.70;97.60;;;;;;5080494;28;20036;-81
2022/08/31 07:48:07;;;;;;;5.22;1.48;;;18.80;97.20;;;;;;5077762;28;20101;-85
2022/08/31 07:50:33;;;;;;;2.83;1.08;;;18.70;97.00;;;;;;5082283;28;20123;-82
2022/08/31 07:52:59;;;;;;;5.18;1.17;;;18.80;97.00;;;;;;5056025;28;20113;-84
2022/08/31 07:55:27;;;;;;;1.92;1.00;;;18.80;97.00;;;;;;5070107;28;20048;-83
2022/08/31 07:57:54;;;;;;;2.05;0.90;;;18.90;97.20;;;;;;5078498;28;20070;-82
2022/08/31 08:00:27;;;;;;;2.65;1.00;;;19.10;97.20;;;;;;5063075;28;20083;-81
2022/08/31 08:02:53;;;;;;;4.05;1.17;;;19.30;96.20;;;;;;5067884;28;20064;-76
2022/08/31 08:05:23;;;;;;;5.35;1.20;;;19.30;96.00;;;;;;5062980;28;20056;-80
2022/08/31 08:07:52;;;;;;;3.35;0.77;;;19.20;95.80;;;;;;5078401;28;20120;-78
2022/08/31 08:10:20;;;;;;;3.17;1.00;;;19.30;96.00;;;;;;5076604;28;20052;-78
2022/08/31 08:12:57;;;;;;;8.20;1.10;;;19.40;96.00;;;;;;5060824;28;20059;-75
2022/08/31 08:15:23;;;;;;;3.38;1.20;;;19.60;96.00;;;;;;5058907;28;20045;-79
2022/08/31 08:17:50;;;;;;;1.42;0.95;;;19.80;96.00;;;;;;5074572;28;20040;-79
2022/08/31 08:20:16;;;;;;;1.98;1.00;;;19.80;95.80;;;;;;5093154;28;20051;-78
2022/08/31 08:22:42;;;;;;;4.47;1.10;;;20.00;95.30;;;;;;5094991;28;20088;-79
2022/08/31 08:25:09;;;;;;;2.00;1.00;;;20.00;95.50;;;;;;5093345;28;20041;-79
2022/08/31 08:27:35;;;;;;;1.07;0.90;;;20.00;95.30;;;;;;5089588;28;20052;-80
2022/08/31 08:30:02;;;;;;;1.90;1.10;;;20.20;95.40;;;;;;5085129;28;20040;-79
2022/08/31 08:32:30;;;;;;;1.42;0.85;;;20.20;95.00;;;;;;5082633;28;20271;-81
2022/08/31 08:34:56;;;;;;;1.42;0.98;;;20.30;94.70;;;;;;5064919;28;20045;-80
2022/08/31 08:37:22;;;;;;;2.72;0.93;;;20.30;94.90;;;;;;5084302;28;20049;-78
2022/08/31 08:39:48;;;;;;;1.73;0.93;;;20.30;94.60;;;;;;5115979;28;20070;-81
2022/08/31 08:42:14;;;;;;;3.63;1.00;;;20.30;94.40;;;;;;5126246;28;20050;-76
2022/08/31 08:44:42;;;;;;;1.38;1.00;;;20.30;94.00;;;;;;5129784;28;20060;-78
2022/08/31 08:47:14;;;;;;;;;;;20.20;94.00;;;;;;5125670;28;20039;-79
2022/08/31 08:49:54;;;;;;;1.50;0.93;;;20.30;93.80;;;;;;5119778;28;20295;-81
2022/08/31 08:52:27;;;;;;;1.63;1.10;;;20.30;93.40;;;;;;5107606;28;20399;-80
2022/08/31 08:54:55;;;;;;;3.60;1.25;;;20.40;93.60;;;;;;5123214;28;20506;-78
2022/08/31 08:57:28;;;;;;;6.28;1.20;;;20.30;93.20;;;;;;5123659;27;20079;-80
2022/08/31 09:00:00;;;;;;;2.38;1.00;;;20.40;93.60;;;;;;5115857;28;20070;-78
2022/08/31 09:03:00;;;;;;;2.08;1.20;;;20.40;93.10;;;;;;5127475;27;20108;-77
2022/08/31 09:05:29;;;;;;;3.60;1.02;;;20.50;93.30;;;;;;5124617;28;20039;-77
2022/08/31 09:08:15;;;;;;;3.17;0.93;;;20.70;93.30;;;;;;5107038;28;20058;-81
2022/08/31 09:10:47;;;;;;;2.78;0.90;;;20.80;92.90;;;;;;5120771;28;20044;-82
2022/08/31 09:13:15;;;;;;;3.92;1.10;;;21.10;92.70;;;;;;5127533;28;20071;-80
2022/08/31 09:15:54;;;;;;;3.85;0.90;;;21.20;92.60;;;;;;5125475;28;20484;-80
2022/08/31 09:18:32;;;;;;;4.25;1.10;;;21.20;92.10;;;;;;5120440;28;20040;-80
2022/08/31 09:21:28;;;;;;;4.07;1.30;;;21.00;92.10;;;;;;5123428;28;20055;-81
2022/08/31 09:24:04;;;;;;;2.50;1.05;;;20.90;91.50;;;;;;5104551;28;20044;-79
2022/08/31 09:26:34;;;;;;;3.28;1.00;;;20.70;91.60;;;;;;5106680;28;20062;-81
2022/08/31 09:29:02;;;;;;;2.67;0.73;;;20.70;92.10;;;;;;5121528;28;20043;-80
2022/08/31 09:31:36;;;;;;;1.83;1.02;;;21.00;92.10;;;;;;5108138;28;20040;-81
2022/08/31 09:34:07;;;;;;;1.98;1.17;;;21.10;91.70;;;;;;5117876;28;20051;-79
2022/08/31 09:36:40;;;;;;;3.50;0.98;;;21.40;91.80;;;;;;5121275;28;20387;-81
2022/08/31 09:39:27;;;;;;;3.28;1.08;;;21.50;91.00;;;;;;5123114;28;20055;-80
2022/08/31 09:42:02;;;;;;;3.88;1.30;;;21.60;91.20;;;;;;5124068;28;20525;-79
2022/08/31 09:44:34;;;;;;;4.28;1.10;;;21.80;90.80;;;;;;5105001;28;20105;-80
2022/08/31 09:47:05;;;;;;;2.35;0.90;;;22.00;90.80;;;;;;5100196;28;20054;-77
2022/08/31 09:49:36;;;;;;;4.30;1.67;;;22.10;90.30;;;;;;5113934;28;20067;-78
2022/08/31 09:55:23;;;;;;;1.98;1.25;;;22.00;90.60;;;;;;5072612;28;20071;-79
2022/08/31 09:58:00;;;;;;;1.30;1.00;;;22.20;89.80;;;;;;5099051;28;20122;-80
2022/08/31 10:00:49;;;;;;;3.67;1.35;;;22.20;90.10;;;;;;5085666;28;20074;-81
2022/08/31 10:03:23;;;;;;;3.30;1.10;;;22.60;88.90;;;;;;5117365;28;20122;-75
2022/08/31 10:05:51;;;;;;;2.05;0.90;;;22.60;88.80;;;;;;5118353;28;20058;-78
2022/08/31 10:08:26;;;;;;;2.53;0.80;;;22.60;87.70;;;;;;5125331;28;20035;-77
2022/08/31 10:10:57;;;;;;;3.80;1.20;;;22.80;86.20;;;;;;5122624;28;20517;-79
2022/08/31 10:13:55;;;;;;;3.20;1.00;;;22.90;83.80;;;;;;5121174;28;20056;-76
2022/08/31 10:16:36;;;;;;;3.30;1.20;;;22.90;83.00;;;;;;5106949;28;20065;-81
2022/08/31 10:19:12;;;;;;;2.60;1.08;;;22.50;84.30;;;;;;5115936;28;20066;-80
2022/08/31 10:21:58;;;;;;;1.42;1.02;;;22.70;86.60;;;;;;5103532;28;20051;-76
2022/08/31 10:24:45;;;;;;;3.42;1.10;;;23.10;86.10;;;;;;5121093;27;20047;-78
2022/08/31 10:27:34;;;;;;;3.45;1.42;;;23.10;84.10;;;;;;5109062;28;20052;-80
2022/08/31 10:30:08;;;;;;;3.10;1.40;;;23.10;85.40;;;;;;5116327;28;20454;-80
2022/08/31 10:32:55;;;;;;;1.00;0.82;;;23.20;84.10;;;;;;5111932;28;20047;-77
2022/08/31 10:35:30;;;;;;;6.43;1.55;;;23.10;82.80;;;;;;5100261;28;20082;-80
2022/08/31 10:38:42;;;;;;;2.05;1.00;;;23.40;83.00;;;;;;5109010;28;20097;-78
2022/08/31 10:41:16;;;;;;;3.03;1.08;;;23.70;80.70;;;;;;5114959;27;20044;-79
2022/08/31 10:44:01;;;;;;;1.90;1.00;;;24.00;80.30;;;;;;5112364;28;20114;-78
2022/08/31 10:46:29;;;;;;;2.15;1.20;;;24.40;79.00;;;;;;5117447;28;20043;-77
2022/08/31 10:48:57;;;;;;;3.17;1.10;;;24.70;79.90;;;;;;5110572;28;20040;-77
2022/08/31 10:51:36;;;;;;;2.17;1.02;;;24.90;78.90;;;;;;5101379;28;20066;-76
2022/08/31 10:54:27;;;;;;;2.63;1.10;;;24.90;78.10;;;;;;5093943;28;20502;-78
2022/08/31 10:57:34;;;;;;;1.40;1.10;;;25.10;78.40;;;;;;5107150;28;20124;-79
2022/08/31 11:00:08;;;;;;;2.50;0.95;;;25.30;78.00;;;;;;5121555;28;20052;-77
2022/08/31 11:03:05;;;;;;;1.55;0.90;;;25.50;74.50;;;;;;5124139;28;20031;-76
2022/08/31 11:05:52;;;;;;;1.88;1.00;;;25.60;73.00;;;;;;5118040;28;20582;-78
2022/08/31 11:08:18;;;;;;;2.50;1.10;;;25.60;72.10;;;;;;5116492;28;20040;-77
2022/08/31 11:10:47;;;;;;;0.88;0.80;;;25.70;74.20;;;;;;5115752;28;20058;-78
2022/08/31 11:13:35;;;;;;;1.35;0.80;;;25.50;73.40;;;;;;5111458;28;20063;-80
2022/08/31 11:16:16;;;;;;;1.48;0.85;;;25.50;71.70;;;;;;5111477;28;20043;-80
2022/08/31 11:19:13;;;;;;;1.02;0.80;;;25.50;72.50;;;;;;5109277;28;21171;-78
2022/08/31 11:22:12;;;;;;;1.33;0.80;;;25.60;71.30;;;;;;5112878;28;20498;-78
2022/08/31 11:25:13;;;;;;;3.42;1.38;;;25.50;71.10;;;;;;5115836;28;20483;-78
2022/08/31 11:28:06;;;;;;;2.00;1.23;;;25.20;69.30;;;;;;5113249;28;20058;-77
2022/08/31 11:30:36;;;;;;;2.58;1.00;;;24.90;70.20;;;;;;5090821;28;20048;-77
2022/08/31 11:33:10;;;;;;;2.72;0.98;;;25.00;69.40;;;;;;5127214;28;20048;-78
2022/08/31 11:35:48;;;;;;;2.60;1.10;;;25.10;69.80;;;;;;5108990;28;20599;-77
2022/08/31 11:38:34;;;;;;;;;;;25.30;68.30;;;;;;5118715;28;20059;-78
2022/08/31 11:41:02;;;;;;;2.22;0.90;;;25.60;68.30;;;;;;5121029;28;19963;-77
2022/08/31 11:43:31;;;;;;;3.00;1.00;;;25.50;68.30;;;;;;5121695;28;20073;-78
2022/08/31 11:46:24;;;;;;;2.88;0.90;;;25.80;68.20;;;;;;5098999;28;20035;-77
2022/08/31 11:48:52;;;;;;;1.67;1.00;;;25.80;68.20;;;;;;5130455;28;20087;-77
2022/08/31 11:51:44;;;;;;;1.88;0.90;;;25.80;68.60;;;;;;5123399;27;20031;-77
2022/08/31 11:54:25;;;;;;;10.25;1.65;;;26.10;68.90;;;;;;5132948;28;20099;-77
2022/08/31 11:56:55;;;;;;;1.85;0.90;;;26.10;65.90;;;;;;5122611;28;20078;-77
2022/08/31 11:59:44;;;;;;;0.95;0.77;;;26.20;67.50;;;;;;5110167;28;20491;-77
2022/08/31 12:02:19;;;;;;;2.55;1.10;;;26.40;66.30;;;;;;5098999;28;20060;-77
2022/08/31 12:04:46;;;;;;;1.50;0.90;;;26.50;65.80;;;;;;5102072;28;20096;-80
2022/08/31 12:07:23;;;;;;;2.42;1.10;;;26.40;66.60;;;;;;5117200;28;20028;-81
2022/08/31 12:10:01;;;;;;;3.47;1.10;;;26.50;65.10;;;;;;5112076;28;20043;-78
2022/08/31 12:12:33;;;;;;;1.50;0.93;;;26.30;65.70;;;;;;5136014;27;20156;-80
2022/08/31 12:15:03;;;;;;;5.50;1.17;;;26.20;65.10;;;;;;5121226;28;20068;-78
2022/08/31 12:18:09;;;;;;;2.15;1.10;;;26.30;66.10;;;;;;5118059;27;20510;-78
2022/08/31 12:24:04;;;;;;;1.10;0.80;;;26.50;65.00;;;;;;5114798;28;20051;-79
2022/08/31 12:26:44;;;;;;;1.80;0.90;;;26.60;64.90;;;;;;5124869;28;20108;-78
2022/08/31 12:29:34;;;;;;;1.48;1.00;;;26.80;63.70;;;;;;5126671;27;20051;-79
2022/08/31 12:32:23;;;;;;;5.88;1.15;;;26.80;62.30;;;;;;5119455;27;20036;-78
2022/08/31 12:35:12;;;;;;;3.05;0.88;;;26.80;63.30;;;;;;5123042;27;20048;-79
2022/08/31 12:37:38;;;;;;;;;;;26.80;63.50;;;;;;5107377;28;20176;-81
2022/08/31 12:40:15;;;;;;;3.90;0.90;;;26.90;63.80;;;;;;5114918;28;19955;-78
2022/08/31 12:43:04;;;;;;;4.00;1.13;;;26.80;63.10;;;;;;5103213;28;20405;-78
2022/08/31 12:45:51;;;;;;;;;;;26.80;62.10;;;;;;5119513;28;20043;-78
2022/08/31 12:49:00;;;;;;;4.05;0.90;;;26.70;61.60;;;;;;5108251;28;19923;-78
2022/08/31 12:51:46;;;;;;;2.33;0.85;;;27.00;61.80;;;;;;5114303;28;20492;-79
2022/08/31 12:54:47;;;;;;;3.53;1.00;;;27.20;62.40;;;;;;5118616;28;20042;-79
2022/08/31 12:57:41;;;;;;;2.00;0.82;;;27.60;61.20;;;;;;5118615;28;20097;-78
2022/08/31 13:00:20;;;;;;;1.83;0.82;;;27.60;59.90;;;;;;5126120;27;20103;-82
2022/08/31 13:02:50;;;;;;;4.20;0.85;;;27.40;60.00;;;;;;5135226;27;20035;-78
2022/08/31 13:05:34;;;;;;;1.17;0.80;;;27.10;60.20;;;;;;5110380;28;20024;-79
2022/08/31 13:08:17;;;;;;;4.18;0.90;;;26.70;60.40;;;;;;5126084;27;20054;-76
2022/08/31 13:10:42;;;;;;;2.75;1.08;;;26.50;60.70;;;;;;5123905;28;20063;-78
2022/08/31 13:13:25;;;;;;;2.45;1.10;;;27.00;61.10;;;;;;5118423;28;20043;-77
2022/08/31 13:15:56;;;;;;;4.10;1.00;;;26.80;60.60;;;;;;5118137;28;20411;-77
2022/08/31 13:18:25;;;;;;;4.68;1.20;;;26.40;62.00;;;;;;5111748;28;20039;-78
2022/08/31 13:20:55;;;;;;;1.63;0.82;;;26.60;62.40;;;;;;5121142;28;20054;-79
2022/08/31 13:23:47;;;;;;;1.45;0.88;;;26.60;62.70;;;;;;5123091;28;20045;-77
2022/08/31 13:26:23;;;;;;;6.95;1.10;;;26.80;61.80;;;;;;5109239;28;20051;-80